createdAt,value
2017-07-12T00:00:52.219Z,5.30
2017-07-12T00:03:19.735Z,5.00
2017-07-12T00:05:47.283Z,4.87
2017-07-12T00:08:14.800Z,5.40
2017-07-12T00:10:42.360Z,4.70
2017-07-12T00:13:09.890Z,5.70
2017-07-12T00:15:37.470Z,5.00
2017-07-12T00:18:04.999Z,5.17
2017-07-12T00:20:32.543Z,5.27
2017-07-12T00:23:00.056Z,5.60
2017-07-12T00:25:27.622Z,4.80
2017-07-12T00:27:55.167Z,4.67
2017-07-12T00:30:22.705Z,5.27
2017-07-12T00:32:50.242Z,5.47
2017-07-12T00:35:17.773Z,4.37
2017-07-12T00:37:45.308Z,4.67
2017-07-12T00:40:12.868Z,5.47
2017-07-12T00:42:40.431Z,4.20
2017-07-12T00:45:07.944Z,4.47
2017-07-12T00:47:35.472Z,4.83
2017-07-12T00:50:03.027Z,4.57
2017-07-12T00:52:30.623Z,4.43
2017-07-12T00:54:58.150Z,5.40
2017-07-12T00:57:25.711Z,5.03
2017-07-12T00:59:53.225Z,3.87
2017-07-12T01:02:20.772Z,4.47
2017-07-12T01:04:48.292Z,4.80
2017-07-12T01:07:15.859Z,4.77
2017-07-12T01:09:43.377Z,4.50
2017-07-12T01:12:10.956Z,3.97
2017-07-12T01:14:38.531Z,5.10
2017-07-12T01:17:06.069Z,5.20
2017-07-12T01:19:33.689Z,4.40
2017-07-12T01:22:01.243Z,5.17
2017-07-12T01:24:28.778Z,5.33
2017-07-12T01:26:56.302Z,6.10
2017-07-12T01:29:23.836Z,5.33
2017-07-12T01:31:51.391Z,5.97
2017-07-12T01:34:18.951Z,5.60
2017-07-12T01:36:46.482Z,5.20
2017-07-12T01:39:13.996Z,5.17
2017-07-12T01:41:41.568Z,4.50
2017-07-12T01:44:09.119Z,4.67
2017-07-12T01:46:36.648Z,4.90
2017-07-12T01:49:04.171Z,5.20
2017-07-12T01:51:31.856Z,4.77
2017-07-12T01:53:59.431Z,4.73
2017-07-12T01:56:26.949Z,5.27
2017-07-12T01:58:54.508Z,6.43
2017-07-12T02:01:22.059Z,4.73
2017-07-12T02:03:49.628Z,5.73
2017-07-12T02:06:17.177Z,5.47
2017-07-12T02:08:44.743Z,5.57
2017-07-12T02:11:12.269Z,6.87
2017-07-12T02:13:39.821Z,5.50
2017-07-12T02:16:07.323Z,5.93
2017-07-12T02:18:34.868Z,6.10
2017-07-12T02:21:02.392Z,5.00
2017-07-12T02:23:30.023Z,5.37
2017-07-12T02:25:57.533Z,5.00
2017-07-12T02:28:25.101Z,5.93
2017-07-12T02:30:52.610Z,5.23
2017-07-12T02:33:20.151Z,5.90
2017-07-12T02:35:47.700Z,5.23
2017-07-12T02:38:15.301Z,5.80
2017-07-12T02:40:42.825Z,5.40
2017-07-12T02:43:10.385Z,5.40
2017-07-12T02:45:37.891Z,5.90
2017-07-12T02:48:05.419Z,6.30
2017-07-12T02:50:32.947Z,5.60
2017-07-12T02:53:00.468Z,5.40
2017-07-12T02:55:28.003Z,4.97
2017-07-12T02:57:55.520Z,5.83
2017-07-12T03:00:23.068Z,5.57
2017-07-12T03:02:50.602Z,5.03
2017-07-12T03:05:18.143Z,5.93
2017-07-12T03:07:45.656Z,6.10
2017-07-12T03:10:13.201Z,6.00
2017-07-12T03:12:40.707Z,5.73
2017-07-12T03:15:08.244Z,5.77
2017-07-12T03:17:35.768Z,6.40
2017-07-12T03:20:03.379Z,6.20
2017-07-12T03:22:30.911Z,7.10
2017-07-12T03:24:58.453Z,6.67
2017-07-12T03:27:25.964Z,7.10
2017-07-12T03:29:53.516Z,7.57
2017-07-12T03:32:21.031Z,7.60
2017-07-12T03:34:48.574Z,6.27
2017-07-12T03:37:16.107Z,6.87
2017-07-12T03:39:55.267Z,7.30
2017-07-12T03:42:22.779Z,7.07
2017-07-12T03:44:50.337Z,6.70
2017-07-12T03:47:17.856Z,7.30
2017-07-12T03:49:45.464Z,6.90
2017-07-12T03:52:12.993Z,6.70
2017-07-12T03:54:40.537Z,6.07
2017-07-12T03:57:08.132Z,7.37
2017-07-12T03:59:35.705Z,6.00
2017-07-12T04:02:03.295Z,7.17
2017-07-12T04:04:30.816Z,5.93
2017-07-12T04:06:58.370Z,6.63
2017-07-12T04:09:25.884Z,7.93
2017-07-12T04:11:53.560Z,22.67
2017-07-12T04:14:21.079Z,10.13
2017-07-12T04:16:48.614Z,7.43
2017-07-12T04:19:16.227Z,7.30
2017-07-12T04:21:43.772Z,7.57
2017-07-12T04:24:11.330Z,8.03
2017-07-12T04:26:38.852Z,7.30
2017-07-12T04:29:06.391Z,7.03
2017-07-12T04:31:33.931Z,7.47
2017-07-12T04:34:01.511Z,6.67
2017-07-12T04:36:29.026Z,6.97
2017-07-12T04:38:56.572Z,9.70
2017-07-12T04:41:24.086Z,6.80
2017-07-12T04:43:51.642Z,7.07
2017-07-12T04:46:19.152Z,6.40
2017-07-12T04:48:46.675Z,7.07
2017-07-12T04:51:14.220Z,8.13
2017-07-12T04:53:41.753Z,8.07
2017-07-12T04:56:09.311Z,7.10
2017-07-12T04:58:36.831Z,6.33
2017-07-12T05:01:04.482Z,7.40
2017-07-12T05:03:32.000Z,6.77
2017-07-12T05:05:59.567Z,6.37
2017-07-12T05:08:27.103Z,9.53
2017-07-12T05:10:54.695Z,7.53
2017-07-12T05:13:22.206Z,8.40
2017-07-12T05:15:49.852Z,8.40
2017-07-12T05:18:17.411Z,7.90
2017-07-12T05:20:45.103Z,8.70
2017-07-12T05:23:12.650Z,7.20
2017-07-12T05:25:40.200Z,7.83
2017-07-12T05:28:07.717Z,7.53
2017-07-12T05:30:35.252Z,8.17
2017-07-12T05:33:02.769Z,8.70
2017-07-12T05:35:30.367Z,9.13
2017-07-12T05:37:57.891Z,8.03
2017-07-12T05:40:25.445Z,7.70
2017-07-12T05:42:52.973Z,7.97
2017-07-12T05:45:20.516Z,7.93
2017-07-12T05:47:48.027Z,9.03
2017-07-12T05:50:15.589Z,7.70
2017-07-12T05:52:43.132Z,8.07
2017-07-12T05:55:10.660Z,6.47
2017-07-12T05:57:38.241Z,6.43
2017-07-12T06:00:05.808Z,6.00
2017-07-12T06:02:33.328Z,7.23
2017-07-12T06:05:00.846Z,8.27
2017-07-12T06:07:28.381Z,7.77
2017-07-12T06:09:55.888Z,7.53
2017-07-12T06:12:23.436Z,7.57
2017-07-12T06:14:50.939Z,7.67
2017-07-12T06:17:18.478Z,8.33
2017-07-12T06:19:46.044Z,8.80
2017-07-12T06:22:13.672Z,9.00
2017-07-12T06:24:41.240Z,9.50
2017-07-12T06:27:08.801Z,9.63
2017-07-12T06:29:36.339Z,8.07
2017-07-12T06:32:03.984Z,7.57
2017-07-12T06:34:31.544Z,7.23
2017-07-12T06:36:59.087Z,8.70
2017-07-12T06:39:26.613Z,6.00
2017-07-12T06:41:54.148Z,7.23
2017-07-12T06:44:21.656Z,6.10
2017-07-12T06:46:49.220Z,6.47
2017-07-12T06:49:16.743Z,6.47
2017-07-12T06:51:44.249Z,6.73
2017-07-12T06:54:11.805Z,6.80
2017-07-12T06:56:39.320Z,7.17
2017-07-12T06:59:06.864Z,5.87
2017-07-12T07:01:34.395Z,5.90
2017-07-12T07:04:01.930Z,6.43
2017-07-12T07:06:29.439Z,6.47
2017-07-12T07:08:57.041Z,6.23
2017-07-12T07:11:24.547Z,7.40
2017-07-12T07:13:52.092Z,8.43
2017-07-12T07:16:19.680Z,7.50
2017-07-12T07:18:47.336Z,6.47
2017-07-12T07:21:14.857Z,7.30
2017-07-12T07:23:42.410Z,7.60
2017-07-12T07:26:09.916Z,7.40
2017-07-12T07:28:37.423Z,8.10
2017-07-12T07:31:04.962Z,8.57
2017-07-12T07:33:32.474Z,8.63
2017-07-12T07:36:00.015Z,8.27
2017-07-12T07:38:27.544Z,7.77
2017-07-12T07:40:55.098Z,7.10
2017-07-12T07:43:22.599Z,6.60
2017-07-12T07:45:50.183Z,5.00
2017-07-12T07:48:17.696Z,6.27
2017-07-12T07:50:45.239Z,6.47
2017-07-12T07:53:12.755Z,5.17
2017-07-12T07:55:40.320Z,5.13
2017-07-12T07:58:07.838Z,5.50
2017-07-12T08:00:35.371Z,7.17
2017-07-12T08:03:02.889Z,5.27
2017-07-12T08:05:30.546Z,5.57
2017-07-12T08:07:58.093Z,5.67
2017-07-12T08:10:25.632Z,4.60
2017-07-12T08:12:53.204Z,4.93
2017-07-12T08:15:20.778Z,5.70
2017-07-12T08:17:48.305Z,5.00
2017-07-12T08:20:15.844Z,4.67
2017-07-12T08:22:43.363Z,3.53
2017-07-12T08:25:10.947Z,3.50
2017-07-12T08:27:38.459Z,4.43
2017-07-12T08:30:06.012Z,3.93
2017-07-12T08:32:33.522Z,2.70
2017-07-12T08:35:01.069Z,3.50
2017-07-12T08:37:28.579Z,3.93
2017-07-12T08:39:56.168Z,3.73
2017-07-12T08:42:23.676Z,3.07
2017-07-12T08:44:51.228Z,3.20
2017-07-12T08:47:18.778Z,3.47
2017-07-12T08:49:46.303Z,3.47
2017-07-12T08:52:13.893Z,2.97
2017-07-12T08:54:41.413Z,3.20
2017-07-12T08:57:08.948Z,3.73
2017-07-12T08:59:36.473Z,3.33
2017-07-12T09:02:04.007Z,2.93
2017-07-12T09:04:31.531Z,3.70
2017-07-12T09:06:59.158Z,3.00
2017-07-12T09:09:26.739Z,2.50
2017-07-12T09:11:54.391Z,2.20
2017-07-12T09:14:21.918Z,2.23
2017-07-12T09:16:49.456Z,2.10
2017-07-12T09:19:16.960Z,1.93
2017-07-12T09:21:44.531Z,2.63
2017-07-12T09:24:12.131Z,1.70
2017-07-12T09:34:02.389Z,1.10
2017-07-12T09:36:29.943Z,1.00
2017-07-12T09:38:57.471Z,1.00
2017-07-12T09:41:24.996Z,1.20
2017-07-12T09:43:52.535Z,1.33
2017-07-12T09:46:20.067Z,1.20
2017-07-12T09:48:47.657Z,1.90
2017-07-12T09:51:15.192Z,0.90
2017-07-12T09:53:42.734Z,1.33
2017-07-12T09:56:10.280Z,1.07
2017-07-12T09:58:37.840Z,1.10
2017-07-12T10:01:05.357Z,1.00
2017-07-12T10:03:32.864Z,0.90
2017-07-12T10:06:00.414Z,0.80
2017-07-12T10:08:28.015Z,1.20
2017-07-12T10:10:55.598Z,1.50
2017-07-12T10:13:23.164Z,1.20
2017-07-12T10:15:50.687Z,1.23
2017-07-12T10:18:18.240Z,1.37
2017-07-12T10:20:45.755Z,1.00
2017-07-12T10:23:13.327Z,0.90
2017-07-12T10:25:40.943Z,1.30
2017-07-12T10:28:08.455Z,1.17
2017-07-12T10:30:35.996Z,1.07
2017-07-12T10:33:03.511Z,1.50
2017-07-12T10:35:31.040Z,0.80
2017-07-12T10:37:58.556Z,0.87
2017-07-12T10:40:26.094Z,1.20
2017-07-12T10:42:53.631Z,1.07
2017-07-12T10:45:21.171Z,1.20
2017-07-12T10:47:48.681Z,1.60
2017-07-12T10:50:16.216Z,1.70
2017-07-12T10:52:43.736Z,6.00
2017-07-12T10:55:11.341Z,2.47
2017-07-12T10:57:38.855Z,1.70
2017-07-12T11:00:06.416Z,1.30
2017-07-12T11:02:34.006Z,1.43
2017-07-12T11:05:01.539Z,1.30
2017-07-12T11:07:29.991Z,1.47
2017-07-12T11:09:57.668Z,0.90
2017-07-12T11:12:25.233Z,1.50
2017-07-12T11:14:52.779Z,1.50
2017-07-12T11:17:20.468Z,2.00
2017-07-12T11:19:47.980Z,2.37
2017-07-12T11:22:15.589Z,2.40
2017-07-12T11:24:43.187Z,2.37
2017-07-12T11:27:10.793Z,2.17
2017-07-12T11:29:38.308Z,2.37
2017-07-12T11:32:05.843Z,3.73
2017-07-12T11:34:33.384Z,2.90
2017-07-12T11:37:00.956Z,3.40
2017-07-12T11:39:28.516Z,3.37
2017-07-12T11:41:56.037Z,2.90
2017-07-12T11:44:23.593Z,2.90
2017-07-12T11:46:51.158Z,3.03
2017-07-12T11:49:18.691Z,2.67
2017-07-12T11:51:46.221Z,2.83
2017-07-12T11:54:13.772Z,3.63
2017-07-12T11:56:41.315Z,3.70
2017-07-12T11:59:08.917Z,4.60
2017-07-12T12:01:36.435Z,3.87
2017-07-12T12:04:04.064Z,4.47
2017-07-12T12:06:31.567Z,3.90
2017-07-12T12:08:59.128Z,3.73
2017-07-12T12:11:26.665Z,5.13
2017-07-12T12:13:54.226Z,3.73
2017-07-12T12:16:21.748Z,4.47
2017-07-12T12:18:49.347Z,5.30
2017-07-12T12:21:16.891Z,1.60
2017-07-12T12:23:44.448Z,1.33
2017-07-12T12:26:11.989Z,0.90
2017-07-12T12:28:39.533Z,0.70
2017-07-12T12:31:07.092Z,0.80
2017-07-12T12:33:34.738Z,2.50
2017-07-12T12:36:02.269Z,1.10
2017-07-12T12:38:29.804Z,1.80
2017-07-12T12:40:57.327Z,1.47
2017-07-12T12:43:24.869Z,0.73
2017-07-12T12:45:52.405Z,1.40
2017-07-12T12:48:19.959Z,0.90
2017-07-12T12:50:47.483Z,0.73
2017-07-12T12:53:15.043Z,1.50
2017-07-12T12:55:42.559Z,0.70
2017-07-12T12:58:10.067Z,1.83
2017-07-12T13:00:37.620Z,0.80
2017-07-12T13:03:05.148Z,0.90
2017-07-12T13:05:38.257Z,1.10
2017-07-12T13:08:05.823Z,1.60
2017-07-12T13:10:33.458Z,2.53
2017-07-12T13:13:01.060Z,1.50
2017-07-12T13:15:28.603Z,2.13
2017-07-12T13:17:56.177Z,2.80
2017-07-12T13:20:23.720Z,2.57
2017-07-12T13:22:51.360Z,2.50
2017-07-12T13:25:19.182Z,3.13
2017-07-12T13:27:46.640Z,3.30
2017-07-12T13:30:14.195Z,2.97
2017-07-12T13:32:41.716Z,3.07
2017-07-12T13:35:09.268Z,3.23
2017-07-12T13:37:36.808Z,2.23
2017-07-12T13:40:04.374Z,2.10
2017-07-12T13:42:31.969Z,2.00
2017-07-12T13:44:59.495Z,2.30
2017-07-12T13:47:27.032Z,1.47
2017-07-12T13:49:54.571Z,1.70
2017-07-12T13:52:22.084Z,1.73
2017-07-12T13:54:49.651Z,1.47
2017-07-12T13:57:17.212Z,2.50
2017-07-12T13:59:44.754Z,2.10
2017-07-12T14:02:12.293Z,1.37
2017-07-12T14:04:39.842Z,1.37
2017-07-12T14:07:07.391Z,1.50
2017-07-12T14:09:34.932Z,1.97
2017-07-12T14:12:02.444Z,1.97
2017-07-12T14:14:30.001Z,2.33
2017-07-12T14:16:57.515Z,2.20
2017-07-12T14:19:25.028Z,2.27
2017-07-12T14:21:52.596Z,2.20
2017-07-12T14:24:20.110Z,2.17
2017-07-12T14:26:47.681Z,3.03
2017-07-12T14:29:15.220Z,10.07
2017-07-12T14:31:42.786Z,4.50
2017-07-12T14:34:10.340Z,5.03
2017-07-12T14:36:37.905Z,3.73
2017-07-12T14:39:05.415Z,4.70
2017-07-12T14:41:32.974Z,2.60
2017-07-12T14:44:00.493Z,2.60
2017-07-12T14:46:28.041Z,2.47
2017-07-12T14:48:55.557Z,1.40
2017-07-12T14:51:23.092Z,7.87
2017-07-12T14:53:50.619Z,1.70
2017-07-12T14:56:18.166Z,1.20
2017-07-12T14:58:45.679Z,1.00
2017-07-12T15:01:13.267Z,1.17
2017-07-12T15:03:40.762Z,1.53
2017-07-12T15:06:08.304Z,1.97
2017-07-12T15:08:35.827Z,1.43
2017-07-12T15:11:03.408Z,1.63
2017-07-12T15:13:30.955Z,1.67
2017-07-12T15:15:58.543Z,1.50
2017-07-12T15:18:26.305Z,1.67
2017-07-12T15:20:53.857Z,2.67
2017-07-12T15:23:21.408Z,2.20
2017-07-12T15:25:48.977Z,2.00
2017-07-12T15:28:16.531Z,1.50
2017-07-12T15:30:44.107Z,1.40
2017-07-12T15:33:11.652Z,1.70
2017-07-12T15:35:39.239Z,2.30
2017-07-12T15:38:06.849Z,1.80
2017-07-12T15:40:34.533Z,2.67
2017-07-12T15:43:02.055Z,2.53
2017-07-12T15:45:29.607Z,2.13
2017-07-12T15:47:57.128Z,2.60
2017-07-12T15:50:24.648Z,1.80
2017-07-12T15:52:52.203Z,1.83
2017-07-12T15:55:19.737Z,2.10
2017-07-12T15:57:47.344Z,2.33
2017-07-12T16:00:14.908Z,2.30
2017-07-12T16:02:42.629Z,2.53
2017-07-12T16:05:10.143Z,3.20
2017-07-12T16:07:37.691Z,3.67
2017-07-12T16:10:05.205Z,3.87
2017-07-12T16:12:32.770Z,4.53
2017-07-12T16:15:00.306Z,4.30
2017-07-12T16:17:27.868Z,4.17
2017-07-12T16:19:55.520Z,4.13
2017-07-12T16:22:23.102Z,7.03
2017-07-12T16:24:50.657Z,4.37
2017-07-12T16:27:18.213Z,3.03
2017-07-12T16:29:45.736Z,3.23
2017-07-12T16:32:13.280Z,3.10
2017-07-12T16:34:40.815Z,2.43
2017-07-12T16:37:08.385Z,2.93
2017-07-12T16:39:35.919Z,2.47
2017-07-12T16:42:03.454Z,2.60
2017-07-12T16:44:30.999Z,2.40
2017-07-12T16:46:58.534Z,2.67
2017-07-12T16:49:26.089Z,3.43
2017-07-12T16:51:53.657Z,2.70
2017-07-12T16:54:21.240Z,3.20
2017-07-12T16:56:48.781Z,3.23
2017-07-12T16:59:16.328Z,3.63
2017-07-12T17:01:43.848Z,3.50
2017-07-12T17:04:11.445Z,4.57
2017-07-12T17:06:38.999Z,4.03
2017-07-12T17:09:06.608Z,4.27
2017-07-12T17:11:34.121Z,4.50
2017-07-12T17:14:01.669Z,4.67
2017-07-12T17:16:29.413Z,3.50
2017-07-12T17:18:56.977Z,3.43
2017-07-12T17:21:24.504Z,3.30
2017-07-12T17:23:52.271Z,4.20
2017-07-12T17:26:19.803Z,3.80
2017-07-12T17:28:47.353Z,3.10
2017-07-12T17:31:14.932Z,2.33
2017-07-12T17:33:42.440Z,3.60
2017-07-12T17:36:09.956Z,3.13
2017-07-12T17:38:37.511Z,3.60
2017-07-12T17:41:05.023Z,8.40
2017-07-12T17:43:32.630Z,5.37
2017-07-12T17:46:00.250Z,3.73
2017-07-12T17:48:27.820Z,3.70
2017-07-12T17:50:55.375Z,3.43
2017-07-12T17:53:22.884Z,3.83
2017-07-12T17:55:50.451Z,3.40
2017-07-12T17:58:17.965Z,3.40
2017-07-12T18:00:45.535Z,2.43
2017-07-12T18:03:13.035Z,2.40
2017-07-12T18:05:40.608Z,6.27
2017-07-12T18:08:08.122Z,2.80
2017-07-12T18:10:35.738Z,2.40
2017-07-12T18:13:03.290Z,2.33
2017-07-12T18:15:30.823Z,2.20
2017-07-12T18:17:58.367Z,2.97
2017-07-12T18:20:25.934Z,2.80
2017-07-12T18:22:53.466Z,3.40
2017-07-12T18:25:20.994Z,3.60
2017-07-12T18:27:48.614Z,3.23
2017-07-12T18:30:16.124Z,2.70
2017-07-12T18:32:43.676Z,2.30
2017-07-12T18:35:11.217Z,2.70
2017-07-12T18:37:38.771Z,3.10
2017-07-12T18:40:06.296Z,2.90
2017-07-12T18:42:33.872Z,3.60
2017-07-12T18:45:01.429Z,2.37
2017-07-12T18:47:28.943Z,2.47
2017-07-12T18:49:56.508Z,2.50
2017-07-12T18:52:24.030Z,2.80
2017-07-12T18:54:51.596Z,3.60
2017-07-12T18:57:19.125Z,2.57
2017-07-12T18:59:46.675Z,2.47
2017-07-12T19:02:14.229Z,2.77
2017-07-12T19:04:41.773Z,4.17
2017-07-12T19:07:09.288Z,2.80
2017-07-12T19:09:36.832Z,2.67
2017-07-12T19:12:04.339Z,2.50
2017-07-12T19:14:31.895Z,2.53
2017-07-12T19:16:59.411Z,2.93
2017-07-12T19:19:26.956Z,2.43
2017-07-12T19:21:54.491Z,2.00
2017-07-12T19:24:22.049Z,2.20
2017-07-12T19:26:49.601Z,2.20
2017-07-12T19:29:17.160Z,1.90
2017-07-12T19:31:44.699Z,1.87
2017-07-12T19:34:12.235Z,1.93
2017-07-12T19:36:39.847Z,1.70
2017-07-12T19:39:07.380Z,1.30
2017-07-12T19:41:34.935Z,1.27
2017-07-12T19:44:02.568Z,1.57
2017-07-12T19:46:30.199Z,1.60
2017-07-12T19:48:57.741Z,2.17
2017-07-12T19:51:25.288Z,7.07
2017-07-12T19:53:52.812Z,2.50
2017-07-12T19:56:20.511Z,1.33
2017-07-12T19:58:48.037Z,1.80
2017-07-12T20:01:15.720Z,1.67
2017-07-12T20:03:43.243Z,1.73
2017-07-12T20:06:10.848Z,2.30
2017-07-12T20:08:38.371Z,4.97
2017-07-12T20:11:06.093Z,5.93
2017-07-12T20:13:33.643Z,3.00
2017-07-12T20:16:01.169Z,1.60
2017-07-12T20:18:28.739Z,1.67
2017-07-12T20:20:56.268Z,1.93
2017-07-12T20:23:23.839Z,1.93
2017-07-12T20:25:51.384Z,2.43
2017-07-12T20:28:18.978Z,1.87
2017-07-12T20:30:46.511Z,1.93
2017-07-12T20:33:14.055Z,3.37
2017-07-12T20:35:41.611Z,1.93
2017-07-12T20:38:09.151Z,1.40
2017-07-12T20:40:36.671Z,2.03
2017-07-12T20:43:04.245Z,1.80
2017-07-12T20:45:31.767Z,1.50
2017-07-12T20:47:59.307Z,1.90
2017-07-12T20:50:26.852Z,2.03
2017-07-12T20:52:54.417Z,1.67
2017-07-12T20:55:21.944Z,1.53
2017-07-12T20:57:49.498Z,1.90
2017-07-12T21:00:17.031Z,1.73
2017-07-12T21:02:44.595Z,2.10
2017-07-12T21:05:12.123Z,1.63
2017-07-12T21:07:39.713Z,2.10
2017-07-12T21:10:07.300Z,2.30
2017-07-12T21:12:34.823Z,2.00
2017-07-12T21:15:02.443Z,1.80
2017-07-12T21:17:29.953Z,1.70
2017-07-12T21:19:57.569Z,1.60
2017-07-12T21:22:25.234Z,1.30
2017-07-12T21:24:52.879Z,2.53
2017-07-12T21:27:20.477Z,1.57
2017-07-12T21:29:48.011Z,3.47
2017-07-12T21:32:15.541Z,1.70
2017-07-12T21:34:43.088Z,1.73
2017-07-12T21:37:10.665Z,2.20
2017-07-12T21:39:38.267Z,1.70
2017-07-12T21:42:05.881Z,2.20
2017-07-12T21:44:33.452Z,1.40
2017-07-12T21:47:00.990Z,2.10
2017-07-12T21:49:28.543Z,2.10
2017-07-12T21:51:56.060Z,2.27
2017-07-12T21:54:41.114Z,1.97
2017-07-12T21:57:26.207Z,2.53
2017-07-12T22:00:11.118Z,2.70
2017-07-12T22:02:56.028Z,1.87
2017-07-12T22:05:40.923Z,2.10
2017-07-12T22:08:25.814Z,2.50
2017-07-12T22:11:10.817Z,1.93
2017-07-12T22:13:55.733Z,2.30
2017-07-12T22:16:40.887Z,2.10
2017-07-12T22:19:26.050Z,2.00
2017-07-12T22:22:11.087Z,2.00
2017-07-12T22:24:56.041Z,2.70
2017-07-12T22:27:41.261Z,2.10
2017-07-12T22:30:26.134Z,3.10
2017-07-12T22:33:11.200Z,2.33
2017-07-12T22:35:56.157Z,1.80
2017-07-12T22:38:29.147Z,2.33
2017-07-12T22:41:02.260Z,2.17
2017-07-12T22:43:31.142Z,2.30
2017-07-12T22:45:58.756Z,2.23
2017-07-12T22:48:26.318Z,1.80
2017-07-12T22:50:53.905Z,2.00
2017-07-12T22:53:21.438Z,2.30
2017-07-12T22:55:48.972Z,2.30
2017-07-12T22:58:16.512Z,2.40
2017-07-12T23:00:44.015Z,1.67
2017-07-12T23:03:11.572Z,2.37
2017-07-12T23:05:39.080Z,2.43
2017-07-12T23:08:06.628Z,2.00
2017-07-12T23:10:34.210Z,3.70
2017-07-12T23:13:01.854Z,2.20
2017-07-12T23:15:29.400Z,2.43
2017-07-12T23:17:57.032Z,2.20
2017-07-12T23:20:24.561Z,2.13
2017-07-12T23:22:52.080Z,2.53
2017-07-12T23:25:19.620Z,4.17
2017-07-12T23:27:47.153Z,3.10
2017-07-12T23:30:14.763Z,2.73
2017-07-12T23:32:42.355Z,2.57
2017-07-12T23:35:09.904Z,3.33
2017-07-12T23:37:37.541Z,2.73
2017-07-12T23:40:05.107Z,2.53
2017-07-12T23:42:32.623Z,2.80
2017-07-12T23:45:00.162Z,2.73
2017-07-12T23:47:27.690Z,2.63
2017-07-12T23:49:55.231Z,2.17
2017-07-12T23:52:22.759Z,2.97
2017-07-12T23:54:50.300Z,2.90
2017-07-12T23:57:17.815Z,3.53
2017-07-12T23:59:45.365Z,2.93
